Check out our new PWSWeather beta!
PWSweather.com
Personal Weather Stations
Station Observations
SEVANL01
SevillaES 41004

SevillaES 41004

Lat: 37.383633, Lon: -5.985787

Elevation: 19.685

Station Type: Davis Vantage Pro2

www.tiempoensevilla.es

High Low Average
Temperature 60.3°F15.7°C 52.1°F11.2°C 56.4°F13.6°C
Dew Point 52.9°F11.6°C 42.6°F5.9°C 47.4°F8.6°C
Winds 10.3 mph 16.6 kmh 2.0 mph 3.2 kmh 5.0 mph W8.0 kmh W
Wind Gusts 23.0 mph37.0 kmh 4.0 mph6.4 kmh 12.0 mph19.3 kmh
Humidity 85% 54% 72%
Pressure 29.95 in1014.2 mb 29.77 in1008.1 mb -
Precipitation 0.04 in1.0 mm - -
Hour Temp Dew Point Humidity Winds Wind Gusts Pressure Precip Precip Rate Daily Precip Total
12:00 AM 60.2°F15.7°C 52.2°F11.2°C 75% 4.0 mph W6.4 kmh W 10.0 mph16.1 kmh 29.95 in1014.2 mb 0.00 in0.0 mm 0.00 in0.0 mm 0.00 in0.0 mm
12:20 AM 60.3°F15.7°C 52.7°F11.5°C 76% 5.0 mph WSW8.0 kmh WSW 10.0 mph16.1 kmh 29.95 in1014.2 mb 0.00 in0.0 mm 0.00 in0.0 mm 0.00 in0.0 mm
12:40 AM 60.1°F15.6°C 52.9°F11.6°C 77% 4.4 mph WNW7.1 kmh WNW 12.0 mph19.3 kmh 29.95 in1014.2 mb 0.00 in0.0 mm 0.00 in0.0 mm 0.00 in0.0 mm
01:00 AM 59.7°F15.4°C 52.8°F11.6°C 78% 4.4 mph WNW7.1 kmh WNW 10.0 mph16.1 kmh 29.95 in1014.2 mb 0.00 in0.0 mm 0.00 in0.0 mm 0.00 in0.0 mm
01:20 AM 59.4°F15.2°C 52.9°F11.6°C 79% 3.4 mph WNW5.5 kmh WNW 11.0 mph17.7 kmh 29.95 in1014.2 mb 0.00 in0.0 mm 0.00 in0.0 mm 0.00 in0.0 mm
01:40 AM 59.0°F15.0°C 52.5°F11.4°C 79% 3.0 mph WNW4.8 kmh WNW 9.0 mph14.5 kmh 29.94 in1013.9 mb 0.00 in0.0 mm 0.00 in0.0 mm 0.00 in0.0 mm
02:00 AM 58.4°F14.7°C 51.9°F11.1°C 79% 3.5 mph W5.6 kmh W 9.0 mph14.5 kmh 29.94 in1013.9 mb 0.00 in0.0 mm 0.00 in0.0 mm 0.00 in0.0 mm
02:20 AM 57.7°F14.3°C 50.9°F10.5°C 78% 4.0 mph WNW6.4 kmh WNW 10.0 mph16.1 kmh 29.93 in1013.5 mb 0.00 in0.0 mm 0.00 in0.0 mm 0.00 in0.0 mm
02:40 AM 57.2°F14.0°C 50.4°F10.2°C 78% 4.6 mph NW7.4 kmh NW 11.0 mph17.7 kmh 29.94 in1013.9 mb 0.00 in0.0 mm 0.00 in0.0 mm 0.00 in0.0 mm
03:00 AM 56.9°F13.8°C 50.5°F10.3°C 79% 2.2 mph WNW3.5 kmh WNW 4.0 mph6.4 kmh 29.93 in1013.5 mb 0.00 in0.0 mm 0.00 in0.0 mm 0.00 in0.0 mm
03:20 AM 56.3°F13.5°C 49.9°F9.9°C 79% 2.0 mph W3.2 kmh W 7.0 mph11.3 kmh 29.93 in1013.5 mb 0.00 in0.0 mm 0.00 in0.0 mm 0.00 in0.0 mm
03:40 AM 55.8°F13.2°C 49.4°F9.7°C 79% 2.0 mph W3.2 kmh W 6.0 mph9.7 kmh 29.91 in1012.9 mb 0.00 in0.0 mm 0.00 in0.0 mm 0.00 in0.0 mm
04:00 AM 55.2°F12.9°C 48.8°F9.3°C 79% 3.2 mph W5.1 kmh W 7.0 mph11.3 kmh 29.91 in1012.9 mb 0.00 in0.0 mm 0.00 in0.0 mm 0.00 in0.0 mm
04:20 AM 54.8°F12.7°C 48.4°F9.1°C 79% 3.7 mph WSW6.0 kmh WSW 7.0 mph11.3 kmh 29.91 in1012.9 mb 0.00 in0.0 mm 0.00 in0.0 mm 0.00 in0.0 mm
04:40 AM 54.4°F12.4°C 48.0°F8.9°C 79% 4.4 mph WSW7.1 kmh WSW 10.0 mph16.1 kmh 29.91 in1012.9 mb 0.00 in0.0 mm 0.00 in0.0 mm 0.00 in0.0 mm
05:00 AM 54.0°F12.2°C 47.6°F8.7°C 79% 5.2 mph WSW8.4 kmh WSW 9.0 mph14.5 kmh 29.90 in1012.5 mb 0.00 in0.0 mm 0.00 in0.0 mm 0.00 in0.0 mm
05:20 AM 53.5°F11.9°C 47.8°F8.8°C 81% 3.0 mph WSW4.8 kmh WSW 7.0 mph11.3 kmh 29.89 in1012.2 mb 0.00 in0.0 mm 0.00 in0.0 mm 0.00 in0.0 mm
05:40 AM 53.2°F11.8°C 47.5°F8.6°C 81% 4.0 mph SW6.4 kmh SW 9.0 mph14.5 kmh 29.89 in1012.2 mb 0.00 in0.0 mm 0.00 in0.0 mm 0.00 in0.0 mm
06:00 AM 52.4°F11.3°C 47.4°F8.6°C 83% 5.5 mph SW8.9 kmh SW 13.0 mph20.9 kmh 29.89 in1012.2 mb 0.00 in0.0 mm 0.00 in0.0 mm 0.00 in0.0 mm
06:20 AM 52.1°F11.2°C 47.7°F8.7°C 85% 6.0 mph SW9.7 kmh SW 11.0 mph17.7 kmh 29.89 in1012.2 mb 0.00 in0.0 mm 0.00 in0.0 mm 0.00 in0.0 mm
06:40 AM 52.1°F11.2°C 47.7°F8.7°C 85% 3.0 mph SW4.8 kmh SW 8.0 mph12.9 kmh 29.90 in1012.5 mb 0.00 in0.0 mm 0.00 in0.0 mm 0.00 in0.0 mm
07:00 AM 52.3°F11.3°C 47.9°F8.8°C 85% 2.9 mph SW4.7 kmh SW 8.0 mph12.9 kmh 29.89 in1012.2 mb 0.00 in0.0 mm 0.00 in0.0 mm 0.00 in0.0 mm
07:20 AM 52.7°F11.5°C 47.7°F8.7°C 83% 4.0 mph SW6.4 kmh SW 8.0 mph12.9 kmh 29.89 in1012.2 mb 0.00 in0.0 mm 0.00 in0.0 mm 0.00 in0.0 mm
07:40 AM 52.6°F11.4°C 47.6°F8.7°C 83% 4.0 mph SW6.4 kmh SW 9.0 mph14.5 kmh 29.87 in1011.5 mb 0.00 in0.0 mm 0.00 in0.0 mm 0.00 in0.0 mm
08:00 AM 52.9°F11.6°C 47.9°F8.8°C 83% 4.5 mph SW7.2 kmh SW 9.0 mph14.5 kmh 29.87 in1011.5 mb 0.00 in0.0 mm 0.00 in0.0 mm 0.00 in0.0 mm
08:20 AM 53.2°F11.8°C 47.8°F8.8°C 82% 6.8 mph SW10.9 kmh SW 13.0 mph20.9 kmh 29.86 in1011.2 mb 0.00 in0.0 mm 0.00 in0.0 mm 0.00 in0.0 mm
08:40 AM 53.3°F11.8°C 48.3°F9.1°C 83% 6.0 mph SW9.7 kmh SW 13.0 mph20.9 kmh 29.86 in1011.2 mb 0.00 in0.0 mm 0.00 in0.0 mm 0.00 in0.0 mm
09:00 AM 54.2°F12.3°C 49.1°F9.5°C 83% 5.7 mph SW9.2 kmh SW 14.0 mph22.5 kmh 29.87 in1011.5 mb 0.00 in0.0 mm 0.00 in0.0 mm 0.00 in0.0 mm
09:20 AM 54.4°F12.4°C 49.3°F9.6°C 83% 7.0 mph SW11.3 kmh SW 14.0 mph22.5 kmh 29.86 in1011.2 mb 0.00 in0.0 mm 0.00 in0.0 mm 0.00 in0.0 mm
09:40 AM 55.5°F13.1°C 50.1°F10.1°C 82% 6.8 mph SW10.9 kmh SW 14.0 mph22.5 kmh 29.86 in1011.2 mb 0.00 in0.0 mm 0.00 in0.0 mm 0.00 in0.0 mm
10:00 AM 56.6°F13.7°C 50.5°F10.3°C 80% 7.0 mph SW11.3 kmh SW 14.0 mph22.5 kmh 29.85 in1010.8 mb 0.00 in0.0 mm 0.00 in0.0 mm 0.00 in0.0 mm
10:20 AM 57.8°F14.3°C 51.0°F10.6°C 78% 6.7 mph WSW10.8 kmh WSW 17.0 mph27.4 kmh 29.86 in1011.2 mb 0.00 in0.0 mm 0.00 in0.0 mm 0.00 in0.0 mm
10:40 AM 58.3°F14.6°C 51.1°F10.6°C 77% 7.2 mph WSW11.6 kmh WSW 17.0 mph27.4 kmh 29.84 in1010.5 mb 0.00 in0.0 mm 0.00 in0.0 mm 0.00 in0.0 mm
11:00 AM 58.6°F14.8°C 50.7°F10.4°C 75% 7.3 mph WSW11.7 kmh WSW 18.0 mph29.0 kmh 29.85 in1010.8 mb 0.00 in0.0 mm 0.00 in0.0 mm 0.00 in0.0 mm
11:20 AM 58.4°F14.7°C 50.9°F10.5°C 76% 7.1 mph WSW11.4 kmh WSW 17.0 mph27.4 kmh 29.84 in1010.5 mb 0.00 in0.0 mm 0.00 in0.0 mm 0.00 in0.0 mm
11:40 AM 58.6°F14.8°C 51.1°F10.6°C 76% 7.3 mph WSW11.7 kmh WSW 14.0 mph22.5 kmh 29.84 in1010.5 mb 0.00 in0.0 mm 0.00 in0.0 mm 0.00 in0.0 mm
12:00 PM 58.8°F14.9°C 51.2°F10.7°C 76% 8.1 mph W13.0 kmh W 19.0 mph30.6 kmh 29.84 in1010.5 mb 0.00 in0.0 mm 0.00 in0.0 mm 0.00 in0.0 mm
12:20 PM 59.0°F15.0°C 51.4°F10.8°C 76% 9.3 mph W15.0 kmh W 20.0 mph32.2 kmh 29.82 in1009.8 mb 0.00 in0.0 mm 0.00 in0.0 mm 0.00 in0.0 mm
12:40 PM 59.1°F15.1°C 51.2°F10.7°C 75% 5.9 mph W9.5 kmh W 16.0 mph25.7 kmh 29.82 in1009.8 mb 0.00 in0.0 mm 0.00 in0.0 mm 0.00 in0.0 mm
01:00 PM 56.0°F13.3°C 48.2°F9.0°C 75% 9.3 mph NW15.0 kmh NW 21.0 mph33.8 kmh 29.83 in1010.2 mb 0.02 in0.5 mm 0.03 in0.8 mm 0.02 in0.5 mm
01:20 PM 55.8°F13.2°C 49.7°F9.8°C 80% 7.7 mph NW12.4 kmh NW 12.0 mph19.3 kmh 29.82 in1009.8 mb 0.04 in1.0 mm 0.06 in1.5 mm 0.04 in1.0 mm
01:40 PM 57.6°F14.2°C 47.5°F8.6°C 69% 8.5 mph NW13.7 kmh NW 19.0 mph30.6 kmh 29.82 in1009.8 mb 0.04 in1.0 mm 0.00 in0.0 mm 0.04 in1.0 mm
02:00 PM 57.7°F14.3°C 47.6°F8.7°C 69% 7.7 mph NW12.4 kmh NW 18.0 mph29.0 kmh 29.81 in1009.5 mb 0.02 in0.5 mm 0.00 in0.0 mm 0.04 in1.0 mm
02:20 PM 58.1°F14.5°C 46.0°F7.8°C 64% 7.2 mph WNW11.6 kmh WNW 14.0 mph22.5 kmh 29.80 in1009.1 mb 0.00 in0.0 mm 0.00 in0.0 mm 0.04 in1.0 mm
02:40 PM 58.7°F14.8°C 46.1°F7.8°C 63% 5.9 mph WNW9.5 kmh WNW 12.0 mph19.3 kmh 29.79 in1008.8 mb 0.00 in0.0 mm 0.00 in0.0 mm 0.04 in1.0 mm
03:00 PM 59.1°F15.1°C 44.3°F6.8°C 58% 7.1 mph NW11.4 kmh NW 16.0 mph25.7 kmh 29.79 in1008.8 mb 0.00 in0.0 mm 0.00 in0.0 mm 0.04 in1.0 mm
03:20 PM 59.5°F15.3°C 43.3°F6.3°C 55% 8.8 mph NW14.2 kmh NW 18.0 mph29.0 kmh 29.79 in1008.8 mb 0.00 in0.0 mm 0.00 in0.0 mm 0.04 in1.0 mm
03:40 PM 57.3°F14.1°C 42.6°F5.9°C 58% 10.3 mph NW16.6 kmh NW 16.0 mph25.7 kmh 29.80 in1009.1 mb 0.00 in0.0 mm 0.00 in0.0 mm 0.04 in1.0 mm
04:00 PM 57.8°F14.3°C 42.7°F5.9°C 57% 3.8 mph NW6.1 kmh NW 14.0 mph22.5 kmh 29.78 in1008.5 mb 0.00 in0.0 mm 0.00 in0.0 mm 0.04 in1.0 mm
04:20 PM 58.8°F14.9°C 42.7°F5.9°C 55% 5.2 mph WNW8.4 kmh WNW 13.0 mph20.9 kmh 29.78 in1008.5 mb 0.00 in0.0 mm 0.00 in0.0 mm 0.04 in1.0 mm
04:40 PM 58.8°F14.9°C 43.1°F6.2°C 56% 5.4 mph WNW8.7 kmh WNW 14.0 mph22.5 kmh 29.77 in1008.1 mb 0.00 in0.0 mm 0.00 in0.0 mm 0.04 in1.0 mm
05:00 PM 59.3°F15.2°C 43.6°F6.4°C 56% 5.8 mph W9.3 kmh W 12.0 mph19.3 kmh 29.78 in1008.5 mb 0.00 in0.0 mm 0.00 in0.0 mm 0.04 in1.0 mm
05:20 PM 59.2°F15.1°C 43.5°F6.4°C 56% 6.7 mph WNW10.8 kmh WNW 23.0 mph37.0 kmh 29.80 in1009.1 mb 0.00 in0.0 mm 0.00 in0.0 mm 0.04 in1.0 mm
05:40 PM 59.3°F15.2°C 42.6°F5.9°C 54% 6.6 mph WSW10.6 kmh WSW 16.0 mph25.7 kmh 29.80 in1009.1 mb 0.00 in0.0 mm 0.00 in0.0 mm 0.04 in1.0 mm
06:00 PM 58.5°F14.7°C 42.8°F6.0°C 56% 6.8 mph W10.9 kmh W 18.0 mph29.0 kmh 29.79 in1008.8 mb 0.00 in0.0 mm 0.00 in0.0 mm 0.04 in1.0 mm
06:20 PM 58.0°F14.4°C 43.3°F6.3°C 58% 5.1 mph WSW8.2 kmh WSW 13.0 mph20.9 kmh 29.79 in1008.8 mb 0.00 in0.0 mm 0.00 in0.0 mm 0.04 in1.0 mm
06:40 PM 57.6°F14.2°C 43.4°F6.3°C 59% 5.5 mph W8.9 kmh W 17.0 mph27.4 kmh 29.80 in1009.1 mb 0.00 in0.0 mm 0.00 in0.0 mm 0.04 in1.0 mm
07:00 PM 57.2°F14.0°C 43.9°F6.6°C 61% 4.8 mph W7.7 kmh W 13.0 mph20.9 kmh 29.80 in1009.1 mb 0.00 in0.0 mm 0.00 in0.0 mm 0.04 in1.0 mm
07:40 PM 56.2°F13.4°C 43.8°F6.6°C 63% 4.2 mph WSW6.8 kmh WSW 9.0 mph14.5 kmh 29.81 in1009.5 mb 0.00 in0.0 mm 0.00 in0.0 mm 0.04 in1.0 mm
08:00 PM 56.1°F13.4°C 43.3°F6.3°C 62% 2.3 mph WSW3.7 kmh WSW 8.0 mph12.9 kmh 29.80 in1009.1 mb 0.00 in0.0 mm 0.00 in0.0 mm 0.04 in1.0 mm
08:20 PM 55.9°F13.3°C 43.1°F6.2°C 62% 5.0 mph WSW8.0 kmh WSW 9.0 mph14.5 kmh 29.81 in1009.5 mb 0.00 in0.0 mm 0.00 in0.0 mm 0.04 in1.0 mm
08:40 PM 55.6°F13.1°C 43.2°F6.2°C 63% 4.5 mph WSW7.2 kmh WSW 9.0 mph14.5 kmh 29.81 in1009.5 mb 0.00 in0.0 mm 0.00 in0.0 mm 0.04 in1.0 mm
09:00 PM 55.2°F12.9°C 43.6°F6.4°C 65% 4.4 mph WSW7.1 kmh WSW 10.0 mph16.1 kmh 29.82 in1009.8 mb 0.00 in0.0 mm 0.00 in0.0 mm 0.04 in1.0 mm
09:20 PM 54.8°F12.7°C 44.0°F6.7°C 67% 5.4 mph WSW8.7 kmh WSW 12.0 mph19.3 kmh 29.81 in1009.5 mb 0.00 in0.0 mm 0.00 in0.0 mm 0.04 in1.0 mm
09:40 PM 54.7°F12.6°C 44.3°F6.8°C 68% 4.8 mph WSW7.7 kmh WSW 9.0 mph14.5 kmh 29.81 in1009.5 mb 0.00 in0.0 mm 0.00 in0.0 mm 0.04 in1.0 mm
10:00 PM 54.4°F12.4°C 44.8°F7.1°C 70% 4.1 mph WSW6.6 kmh WSW 12.0 mph19.3 kmh 29.81 in1009.5 mb 0.00 in0.0 mm 0.00 in0.0 mm 0.04 in1.0 mm
10:20 PM 54.1°F12.3°C 44.5°F6.9°C 70% 4.8 mph W7.7 kmh W 12.0 mph19.3 kmh 29.81 in1009.5 mb 0.00 in0.0 mm 0.00 in0.0 mm 0.04 in1.0 mm
10:40 PM 53.8°F12.1°C 44.2°F6.8°C 70% 3.0 mph WSW4.8 kmh WSW 11.0 mph17.7 kmh 29.81 in1009.5 mb 0.00 in0.0 mm 0.00 in0.0 mm 0.04 in1.0 mm
11:00 PM 53.6°F12.0°C 44.4°F6.9°C 71% 4.9 mph WSW7.9 kmh WSW 11.0 mph17.7 kmh 29.80 in1009.1 mb 0.00 in0.0 mm 0.00 in0.0 mm 0.04 in1.0 mm
11:20 PM 53.5°F11.9°C 44.3°F6.8°C 71% 4.9 mph W7.9 kmh W 13.0 mph20.9 kmh 29.80 in1009.1 mb 0.00 in0.0 mm 0.00 in0.0 mm 0.04 in1.0 mm
11:40 PM 53.3°F11.8°C 44.1°F6.7°C 71% 5.3 mph W8.5 kmh W 13.0 mph20.9 kmh 29.80 in1009.1 mb 0.00 in0.0 mm 0.00 in0.0 mm 0.04 in1.0 mm